createdAt,value
2017-12-14T00:01:20.638Z,0
2017-12-14T00:02:42.364Z,0
2017-12-14T00:04:04.458Z,0
2017-12-14T00:05:26.739Z,0
2017-12-14T00:06:48.431Z,0
2017-12-14T00:08:10.137Z,0
2017-12-14T00:09:32.234Z,0
2017-12-14T00:10:53.787Z,0
2017-12-14T00:12:15.558Z,0
2017-12-14T00:13:37.506Z,0
2017-12-14T00:14:59.065Z,0
2017-12-14T00:16:20.672Z,0
2017-12-14T00:17:42.637Z,0
2017-12-14T00:19:03.804Z,0
2017-12-14T00:20:25.505Z,0
2017-12-14T00:21:47.204Z,0
2017-12-14T00:23:09.164Z,0
2017-12-14T00:24:30.871Z,0
2017-12-14T00:25:52.565Z,0
2017-12-14T00:27:13.977Z,0
2017-12-14T00:28:35.395Z,0
2017-12-14T00:29:56.846Z,0
2017-12-14T00:31:18.559Z,0
2017-12-14T00:32:40.526Z,0
2017-12-14T00:34:02.274Z,0
2017-12-14T00:35:23.987Z,0
2017-12-14T00:36:45.944Z,0
2017-12-14T00:38:08.021Z,0
2017-12-14T00:39:29.444Z,0
2017-12-14T00:40:51.126Z,0
2017-12-14T00:42:13.222Z,0
2017-12-14T00:43:34.924Z,0
2017-12-14T00:44:56.613Z,0
2017-12-14T00:46:18.404Z,0
2017-12-14T00:47:40.364Z,0
2017-12-14T00:49:02.583Z,0
2017-12-14T00:50:24.274Z,0
2017-12-14T00:51:46.246Z,0
2017-12-14T00:53:08.204Z,0
2017-12-14T00:54:29.954Z,0
2017-12-14T00:55:51.547Z,0
2017-12-14T00:57:13.764Z,0
2017-12-14T00:58:34.964Z,0
2017-12-14T00:59:56.956Z,0
2017-12-14T01:01:18.634Z,0
2017-12-14T01:02:40.853Z,0
2017-12-14T01:04:02.264Z,0
2017-12-14T01:05:24.314Z,0
2017-12-14T01:06:46.564Z,0
2017-12-14T01:08:08.905Z,0
2017-12-14T01:09:31.274Z,0
2017-12-14T01:10:52.974Z,0
2017-12-14T01:12:14.923Z,0
2017-12-14T01:13:37.283Z,0
2017-12-14T01:14:58.962Z,0
2017-12-14T01:16:20.665Z,0
2017-12-14T01:17:42.648Z,0
2017-12-14T01:19:04.344Z,0
2017-12-14T01:20:25.554Z,0
2017-12-14T01:21:47.882Z,0
2017-12-14T01:23:09.573Z,0
2017-12-14T01:24:31.781Z,0
2017-12-14T01:25:53.664Z,0
2017-12-14T01:27:15.099Z,0
2017-12-14T01:28:36.254Z,0
2017-12-14T01:29:57.714Z,0
2017-12-14T01:31:19.393Z,0
2017-12-14T01:32:41.385Z,0
2017-12-14T01:34:03.333Z,0
2017-12-14T01:35:25.031Z,0
2017-12-14T01:36:46.715Z,0
2017-12-14T01:38:08.153Z,0
2017-12-14T01:39:29.903Z,0
2017-12-14T01:40:51.154Z,0
2017-12-14T01:42:13.508Z,0
2017-12-14T01:43:35.594Z,0
2017-12-14T01:44:57.407Z,0
2017-12-14T01:46:18.805Z,0
2017-12-14T01:47:41.116Z,0
2017-12-14T01:49:02.825Z,0
2017-12-14T01:50:24.863Z,0
2017-12-14T01:51:46.812Z,0
2017-12-14T01:53:08.494Z,0
2017-12-14T01:54:29.733Z,0
2017-12-14T01:55:51.433Z,0
2017-12-14T01:57:13.153Z,0
2017-12-14T01:58:35.114Z,0
2017-12-14T01:59:56.801Z,0
2017-12-14T02:01:18.633Z,0
2017-12-14T02:02:40.370Z,0
2017-12-14T02:04:02.460Z,0
2017-12-14T02:05:24.134Z,0
2017-12-14T02:06:45.811Z,0
2017-12-14T02:08:07.776Z,0
2017-12-14T02:09:30.024Z,0
2017-12-14T02:10:51.713Z,0
2017-12-14T02:12:13.412Z,0
2017-12-14T02:13:35.363Z,0
2017-12-14T02:14:57.154Z,0
2017-12-14T02:16:19.135Z,0
2017-12-14T02:17:40.833Z,0
2017-12-14T02:19:02.256Z,0
2017-12-14T02:20:24.222Z,0
2017-12-14T02:21:45.913Z,0
2017-12-14T02:23:07.883Z,0
2017-12-14T02:24:29.883Z,0
2017-12-14T02:25:51.314Z,0
2017-12-14T02:27:13.009Z,0
2017-12-14T02:28:34.703Z,0
2017-12-14T02:29:56.801Z,0
2017-12-14T02:31:19.067Z,0
2017-12-14T02:32:41.282Z,0
2017-12-14T02:34:03.263Z,0
2017-12-14T02:35:24.426Z,0
2017-12-14T02:36:46.104Z,0
2017-12-14T02:38:08.167Z,0
2017-12-14T02:39:29.643Z,0
2017-12-14T02:40:51.694Z,0
2017-12-14T02:42:13.384Z,0
2017-12-14T02:43:34.816Z,0
2017-12-14T02:44:56.512Z,0
2017-12-14T02:46:18.203Z,0
2017-12-14T02:47:39.948Z,0
2017-12-14T02:49:01.723Z,0
2017-12-14T02:50:23.141Z,0
2017-12-14T02:51:44.774Z,0
2017-12-14T02:53:06.734Z,0
2017-12-14T02:54:28.237Z,0
2017-12-14T02:55:49.632Z,0
2017-12-14T02:57:11.905Z,0
2017-12-14T02:58:33.595Z,0
2017-12-14T02:59:55.011Z,0
2017-12-14T03:01:16.962Z,0
2017-12-14T03:02:38.660Z,0
2017-12-14T03:04:00.623Z,0
2017-12-14T03:05:22.041Z,0
2017-12-14T03:06:43.802Z,0
2017-12-14T03:08:05.502Z,0
2017-12-14T03:09:27.202Z,0
2017-12-14T03:10:48.933Z,0
2017-12-14T03:12:10.796Z,0
2017-12-14T03:13:32.353Z,0
2017-12-14T03:14:53.773Z,0
2017-12-14T03:16:14.914Z,0
2017-12-14T03:17:36.604Z,0
2017-12-14T03:18:58.350Z,0
2017-12-14T03:20:20.084Z,0
2017-12-14T03:21:42.362Z,0
2017-12-14T03:23:04.334Z,0
2017-12-14T03:24:26.312Z,0
2017-12-14T03:25:47.744Z,0
2017-12-14T03:27:09.702Z,0
2017-12-14T03:28:31.395Z,0
2017-12-14T03:29:53.331Z,0
2017-12-14T03:31:15.075Z,0
2017-12-14T03:32:37.044Z,0
2017-12-14T03:33:58.774Z,0
2017-12-14T03:35:20.183Z,0
2017-12-14T03:36:41.863Z,0
2017-12-14T03:38:03.524Z,0
2017-12-14T03:39:25.112Z,0
2017-12-14T03:40:46.924Z,0
2017-12-14T03:42:08.903Z,0
2017-12-14T03:43:30.321Z,0
2017-12-14T03:44:52.564Z,0
2017-12-14T03:46:14.843Z,0
2017-12-14T03:47:36.534Z,0
2017-12-14T03:48:58.233Z,0
2017-12-14T03:50:19.995Z,0
2017-12-14T03:51:41.932Z,0
2017-12-14T03:53:03.610Z,0
2017-12-14T03:54:25.096Z,0
2017-12-14T03:55:46.784Z,0
2017-12-14T03:57:08.483Z,0
2017-12-14T03:58:29.643Z,0
2017-12-14T03:59:51.361Z,0
2017-12-14T04:01:13.613Z,0
2017-12-14T04:02:35.283Z,0
2017-12-14T04:03:57.446Z,0
2017-12-14T04:05:19.154Z,0
2017-12-14T04:06:40.453Z,0
2017-12-14T04:08:02.149Z,0
2017-12-14T04:09:24.112Z,0
2017-12-14T04:10:45.796Z,0
2017-12-14T04:12:07.334Z,0
2017-12-14T04:13:29.294Z,0
2017-12-14T04:14:51.333Z,0
2017-12-14T04:16:13.295Z,0
2017-12-14T04:17:35.174Z,0
2017-12-14T04:18:56.681Z,0
2017-12-14T04:20:17.843Z,0
2017-12-14T04:21:38.993Z,0
2017-12-14T04:23:00.423Z,0
2017-12-14T04:24:21.965Z,0
2017-12-14T04:25:43.927Z,0
2017-12-14T04:27:05.693Z,0
2017-12-14T04:28:27.375Z,0
2017-12-14T04:29:48.804Z,0
2017-12-14T04:31:10.523Z,0
2017-12-14T04:32:32.501Z,0
2017-12-14T04:33:54.194Z,0
2017-12-14T04:35:16.660Z,0
2017-12-14T04:36:38.094Z,0
2017-12-14T04:37:59.833Z,0
2017-12-14T04:39:22.066Z,0
2017-12-14T04:40:44.300Z,0
2017-12-14T04:42:06.353Z,0
2017-12-14T04:43:28.052Z,0
2017-12-14T04:44:49.745Z,0
2017-12-14T04:46:11.174Z,0
2017-12-14T04:47:33.174Z,0
2017-12-14T04:48:55.132Z,0
2017-12-14T04:50:17.124Z,0
2017-12-14T04:51:39.083Z,0
2017-12-14T04:53:00.505Z,0
2017-12-14T04:54:21.934Z,0
2017-12-14T04:55:43.483Z,0
2017-12-14T04:57:05.473Z,0
2017-12-14T04:58:27.155Z,0
2017-12-14T04:59:48.677Z,0
2017-12-14T05:01:10.633Z,0
2017-12-14T05:02:32.625Z,0
2017-12-14T05:03:54.213Z,0
2017-12-14T05:05:16.175Z,0
2017-12-14T05:06:38.202Z,0
2017-12-14T05:08:00.257Z,0
2017-12-14T05:09:21.963Z,0
2017-12-14T05:10:43.535Z,0
2017-12-14T05:12:05.237Z,0
2017-12-14T05:13:26.764Z,0
2017-12-14T05:14:48.725Z,0
2017-12-14T05:16:10.245Z,0
2017-12-14T05:17:31.955Z,0
2017-12-14T05:18:53.414Z,0
2017-12-14T05:20:15.362Z,0
2017-12-14T05:21:37.584Z,0
2017-12-14T05:22:59.634Z,0
2017-12-14T05:24:21.592Z,0
2017-12-14T05:25:43.015Z,0
2017-12-14T05:27:05.003Z,0
2017-12-14T05:28:26.814Z,0
2017-12-14T05:29:48.784Z,0
2017-12-14T05:31:10.743Z,0
2017-12-14T05:32:31.904Z,0
2017-12-14T05:33:53.885Z,0
2017-12-14T05:35:15.684Z,0
2017-12-14T05:36:37.433Z,0
2017-12-14T05:37:59.195Z,0
2017-12-14T05:39:20.724Z,0
2017-12-14T05:40:42.845Z,0
2017-12-14T05:42:04.263Z,0
2017-12-14T05:43:26.072Z,0
2017-12-14T05:44:47.762Z,0
2017-12-14T05:46:10.055Z,0
2017-12-14T05:47:31.755Z,0
2017-12-14T05:48:53.455Z,0
2017-12-14T05:50:15.874Z,0
2017-12-14T05:51:37.855Z,0
2017-12-14T05:52:59.546Z,0
2017-12-14T05:54:22.012Z,0
2017-12-14T05:55:43.720Z,0
2017-12-14T05:57:05.954Z,0
2017-12-14T05:58:27.454Z,0
2017-12-14T05:59:49.531Z,0
2017-12-14T06:01:11.556Z,0
2017-12-14T06:02:33.555Z,0
2017-12-14T06:03:55.524Z,0
2017-12-14T06:05:17.493Z,0
2017-12-14T06:06:39.197Z,0
2017-12-14T06:08:01.388Z,0
2017-12-14T06:09:23.103Z,0
2017-12-14T06:10:44.538Z,0
2017-12-14T06:12:06.869Z,0
2017-12-14T06:13:29.206Z,0
2017-12-14T06:14:50.936Z,0
2017-12-14T06:16:12.901Z,0
2017-12-14T06:17:34.855Z,0
2017-12-14T06:18:56.885Z,0
2017-12-14T06:20:18.583Z,0
2017-12-14T06:21:40.408Z,0
2017-12-14T06:23:02.674Z,0
2017-12-14T06:24:24.188Z,0
2017-12-14T06:25:46.836Z,0
2017-12-14T06:27:08.397Z,0
2017-12-14T06:28:30.444Z,0
2017-12-14T06:29:51.876Z,0
2017-12-14T06:31:13.314Z,0
2017-12-14T06:32:34.532Z,0
2017-12-14T06:33:56.533Z,0
2017-12-14T06:35:18.525Z,0
2017-12-14T06:36:40.314Z,0
2017-12-14T06:38:01.744Z,0
2017-12-14T06:39:23.716Z,0
2017-12-14T06:40:45.834Z,0
2017-12-14T06:42:07.803Z,0
2017-12-14T06:43:29.752Z,0
2017-12-14T06:44:51.761Z,0
2017-12-14T06:46:13.734Z,12
2017-12-14T06:47:35.210Z,12
2017-12-14T06:48:56.913Z,0
2017-12-14T06:50:18.344Z,0
2017-12-14T06:51:40.055Z,0
2017-12-14T06:53:01.203Z,0
2017-12-14T06:54:22.763Z,0
2017-12-14T06:55:44.183Z,4
2017-12-14T06:57:06.277Z,4
2017-12-14T06:58:27.183Z,0
2017-12-14T06:59:48.880Z,4
2017-12-14T07:01:11.434Z,4
2017-12-14T07:02:33.457Z,4
2017-12-14T07:03:54.619Z,8
2017-12-14T07:05:16.582Z,8
2017-12-14T07:06:38.275Z,8
2017-12-14T07:08:00.244Z,12
2017-12-14T07:09:22.194Z,16
2017-12-14T07:10:43.373Z,20
2017-12-14T07:12:05.084Z,24
2017-12-14T07:13:26.574Z,28
2017-12-14T07:14:48.103Z,32
2017-12-14T07:16:10.083Z,32
2017-12-14T07:17:32.043Z,36
2017-12-14T07:18:53.722Z,44
2017-12-14T07:20:15.199Z,56
2017-12-14T07:21:37.093Z,68
2017-12-14T07:22:59.063Z,76
2017-12-14T07:24:21.014Z,88
2017-12-14T07:25:43.346Z,96
2017-12-14T07:27:05.364Z,104
2017-12-14T07:28:27.365Z,120
2017-12-14T07:29:49.034Z,136
2017-12-14T07:31:10.524Z,148
2017-12-14T07:32:32.513Z,160
2017-12-14T07:33:53.943Z,176
2017-12-14T07:35:16.168Z,188
2017-12-14T07:36:37.854Z,196
2017-12-14T07:37:59.011Z,188
2017-12-14T07:39:20.722Z,180
2017-12-14T07:40:42.413Z,168
2017-12-14T07:42:04.406Z,172
2017-12-14T07:43:26.118Z,200
2017-12-14T07:44:48.133Z,252
2017-12-14T07:46:10.129Z,296
2017-12-14T07:47:32.139Z,324
2017-12-14T07:48:53.314Z,332
2017-12-14T07:50:15.024Z,332
2017-12-14T07:51:36.546Z,376
2017-12-14T07:52:58.784Z,380
2017-12-14T07:54:20.204Z,392
2017-12-14T07:55:42.182Z,472
2017-12-14T07:57:04.340Z,496
2017-12-14T07:58:26.033Z,544
2017-12-14T07:59:47.206Z,604
2017-12-14T08:01:08.722Z,668
2017-12-14T08:02:30.413Z,608
2017-12-14T08:03:51.907Z,632
2017-12-14T08:05:13.458Z,624
2017-12-14T08:06:35.169Z,608
2017-12-14T08:07:56.871Z,688
2017-12-14T08:09:18.290Z,724
2017-12-14T08:10:40.077Z,596
2017-12-14T08:12:01.803Z,584
2017-12-14T08:13:23.813Z,596
2017-12-14T08:14:45.767Z,620
2017-12-14T08:16:07.873Z,664
2017-12-14T08:17:29.355Z,620
2017-12-14T08:18:50.783Z,728
2017-12-14T08:20:12.262Z,784
2017-12-14T08:21:34.473Z,844
2017-12-14T08:22:56.493Z,1048
2017-12-14T08:24:18.832Z,908
2017-12-14T08:25:40.530Z,980
2017-12-14T08:27:02.494Z,988
2017-12-14T08:28:24.182Z,1160
2017-12-14T08:29:46.133Z,1144
2017-12-14T08:31:08.143Z,1000
2017-12-14T08:32:29.968Z,1068
2017-12-14T08:33:51.933Z,1068
2017-12-14T08:35:13.372Z,1008
2017-12-14T08:36:34.805Z,1096
2017-12-14T08:37:56.625Z,904
2017-12-14T08:39:18.860Z,924
2017-12-14T08:40:41.104Z,872
2017-12-14T08:42:02.603Z,1076
2017-12-14T08:43:24.293Z,988
2017-12-14T08:44:46.063Z,1024
2017-12-14T08:46:08.342Z,944
2017-12-14T08:47:29.766Z,972
2017-12-14T08:48:51.590Z,1196
2017-12-14T08:50:13.566Z,1080
2017-12-14T08:51:35.522Z,1224
2017-12-14T08:52:57.493Z,1344
2017-12-14T08:54:19.723Z,1460
2017-12-14T08:55:41.163Z,1660
2017-12-14T08:57:02.593Z,2016
2017-12-14T08:58:24.288Z,2056
2017-12-14T08:59:46.104Z,2180
2017-12-14T09:01:07.864Z,2388
2017-12-14T09:02:29.825Z,2608
2017-12-14T09:03:51.842Z,2436
2017-12-14T09:05:13.262Z,2460
2017-12-14T09:06:35.216Z,2412
2017-12-14T09:07:57.512Z,2036
2017-12-14T09:09:18.944Z,2076
2017-12-14T09:10:40.964Z,1944
2017-12-14T09:12:02.922Z,2140
2017-12-14T09:13:24.618Z,2028
2017-12-14T09:14:46.393Z,2228
2017-12-14T09:16:08.415Z,2144
2017-12-14T09:17:30.124Z,2124
2017-12-14T09:18:52.073Z,2172
2017-12-14T09:20:13.763Z,1808
2017-12-14T09:21:35.453Z,1464
2017-12-14T09:22:57.455Z,1588
2017-12-14T09:24:18.884Z,1604
2017-12-14T09:25:40.316Z,1512
2017-12-14T09:27:02.622Z,1536
2017-12-14T09:28:24.391Z,1736
2017-12-14T09:29:46.633Z,1968
2017-12-14T09:31:08.323Z,2116
2017-12-14T09:32:30.394Z,2104
2017-12-14T09:33:52.455Z,2600
2017-12-14T09:35:14.218Z,2928
2017-12-14T09:36:36.513Z,3740
2017-12-14T09:37:58.225Z,4996
2017-12-14T09:39:20.009Z,5488
2017-12-14T09:40:41.731Z,4928
2017-12-14T09:42:03.155Z,5072
2017-12-14T09:43:25.138Z,5892
2017-12-14T09:44:46.624Z,6272
2017-12-14T09:46:08.741Z,5268
2017-12-14T09:47:30.713Z,5248
2017-12-14T09:48:52.983Z,3564
2017-12-14T09:50:14.484Z,2808
2017-12-14T09:51:36.907Z,3192
2017-12-14T09:52:58.848Z,4180
2017-12-14T09:54:20.541Z,3448
2017-12-14T09:55:42.233Z,2916
2017-12-14T09:57:04.627Z,3364
2017-12-14T09:58:26.409Z,4172
2017-12-14T09:59:48.388Z,3568
2017-12-14T10:01:10.725Z,4484
2017-12-14T10:02:32.984Z,4260
2017-12-14T10:03:54.424Z,4016
2017-12-14T10:05:16.247Z,3876
2017-12-14T10:06:38.226Z,4036
2017-12-14T10:07:59.394Z,5152
2017-12-14T10:09:20.816Z,6220
2017-12-14T10:10:42.232Z,7308
2017-12-14T10:12:03.679Z,8164
2017-12-14T10:13:25.691Z,7252
2017-12-14T10:14:46.845Z,6400
2017-12-14T10:16:08.907Z,5664
2017-12-14T10:17:31.264Z,4692
2017-12-14T10:18:52.685Z,4284
2017-12-14T10:20:14.744Z,3848
2017-12-14T10:21:36.475Z,4344
2017-12-14T10:22:58.804Z,4208
2017-12-14T10:24:20.532Z,4480
2017-12-14T10:25:42.494Z,4392
2017-12-14T10:27:03.924Z,4792
2017-12-14T10:28:26.163Z,4560
2017-12-14T10:29:48.113Z,4384
2017-12-14T10:31:09.803Z,3948
2017-12-14T10:32:31.774Z,4808
2017-12-14T10:33:54.008Z,4464
2017-12-14T10:35:15.977Z,4404
2017-12-14T10:36:38.237Z,3560
2017-12-14T10:37:59.935Z,3504
2017-12-14T10:39:21.371Z,5372
2017-12-14T10:40:42.896Z,4916
2017-12-14T10:42:04.368Z,5760
2017-12-14T10:43:26.761Z,5124
2017-12-14T10:44:48.856Z,4408
2017-12-14T10:46:10.863Z,3152
2017-12-14T10:47:32.837Z,3840
2017-12-14T10:48:54.864Z,3836
2017-12-14T10:50:16.821Z,4088
2017-12-14T10:51:38.504Z,4388
2017-12-14T10:53:00.377Z,4688
2017-12-14T10:54:22.017Z,5140
2017-12-14T10:55:43.723Z,5284
2017-12-14T10:57:05.168Z,4604
2017-12-14T10:58:26.726Z,4232
2017-12-14T10:59:48.759Z,4364
2017-12-14T11:01:10.994Z,4588
2017-12-14T11:02:32.739Z,4460
2017-12-14T11:03:54.434Z,3816
2017-12-14T11:05:16.685Z,4076
2017-12-14T11:06:38.380Z,3652
2017-12-14T11:08:00.395Z,3268
2017-12-14T11:09:22.665Z,3016
2017-12-14T11:10:44.656Z,2800
2017-12-14T11:12:06.695Z,2896
2017-12-14T11:13:28.697Z,2936
2017-12-14T11:14:50.673Z,2872
2017-12-14T11:16:12.444Z,2604
2017-12-14T11:17:34.767Z,2600
2017-12-14T11:18:56.565Z,2180
2017-12-14T11:20:18.000Z,2000
2017-12-14T11:21:39.797Z,2028
2017-12-14T11:23:01.620Z,2220
2017-12-14T11:24:38.465Z,2288
2017-12-14T11:26:00.636Z,2316
2017-12-14T11:27:22.065Z,2396
2017-12-14T11:28:43.904Z,2260
2017-12-14T11:30:05.591Z,2480
2017-12-14T11:31:27.276Z,2548
2017-12-14T11:32:48.974Z,2780
2017-12-14T11:34:10.654Z,3048
2017-12-14T11:35:32.632Z,3536
2017-12-14T11:36:54.803Z,4272
2017-12-14T11:38:17.044Z,4280
2017-12-14T11:39:38.796Z,4432
2017-12-14T11:40:59.952Z,4840
2017-12-14T11:42:21.734Z,5716
2017-12-14T11:43:43.975Z,7316
2017-12-14T11:45:06.224Z,6384
2017-12-14T11:46:27.704Z,6480
2017-12-14T11:47:49.433Z,6664
2017-12-14T11:49:10.896Z,6452
2017-12-14T11:50:32.856Z,5916
2017-12-14T11:51:54.941Z,6132
2017-12-14T11:53:17.221Z,4852
2017-12-14T11:54:39.184Z,4776
2017-12-14T11:56:01.433Z,3528
2017-12-14T11:57:23.416Z,3624
2017-12-14T11:58:45.509Z,4348
2017-12-14T12:00:07.224Z,4560
2017-12-14T12:01:29.204Z,4632
2017-12-14T12:02:50.753Z,4496
2017-12-14T12:04:12.510Z,5680
2017-12-14T12:05:34.224Z,5616
2017-12-14T12:06:55.655Z,3468
2017-12-14T12:08:17.673Z,2972
2017-12-14T12:09:39.384Z,3280
2017-12-14T12:11:01.075Z,3404
2017-12-14T12:12:23.051Z,4016
2017-12-14T12:13:45.278Z,4472
2017-12-14T12:15:06.987Z,5008
2017-12-14T12:16:29.163Z,4672
2017-12-14T12:17:51.137Z,5244
2017-12-14T12:19:13.101Z,6156
2017-12-14T12:20:35.065Z,6128
2017-12-14T12:21:56.514Z,5780
2017-12-14T12:23:17.953Z,5224
2017-12-14T12:24:39.235Z,3848
2017-12-14T12:26:00.986Z,3104
2017-12-14T12:27:23.002Z,2336
2017-12-14T12:28:44.704Z,2840
2017-12-14T12:30:06.543Z,3188
2017-12-14T12:31:27.974Z,2876
2017-12-14T12:32:50.001Z,2480
2017-12-14T12:34:11.455Z,2756
2017-12-14T12:35:33.467Z,3492
2017-12-14T12:36:55.524Z,4096
2017-12-14T12:38:17.525Z,5036
2017-12-14T12:39:39.834Z,4336
2017-12-14T12:41:02.086Z,3992
2017-12-14T12:42:24.144Z,2604
2017-12-14T12:43:46.459Z,2132
2017-12-14T12:45:08.707Z,2548
2017-12-14T12:46:30.185Z,2316
2017-12-14T12:47:51.901Z,2084
2017-12-14T12:49:13.892Z,2148
2017-12-14T12:50:36.158Z,2796
2017-12-14T12:51:57.854Z,2484
2017-12-14T12:53:19.543Z,2040
2017-12-14T12:54:41.115Z,2532
2017-12-14T12:56:03.105Z,4040
2017-12-14T12:57:24.805Z,4168
2017-12-14T12:58:46.517Z,2916
2017-12-14T13:00:08.236Z,1820
2017-12-14T13:01:29.947Z,1356
2017-12-14T13:02:51.635Z,1740
2017-12-14T13:04:13.355Z,2208
2017-12-14T13:05:35.334Z,1768
2017-12-14T13:06:57.495Z,1596
2017-12-14T13:08:18.957Z,1388
2017-12-14T13:09:41.247Z,1284
2017-12-14T13:11:02.938Z,1520
2017-12-14T13:12:24.636Z,1608
2017-12-14T13:13:46.976Z,1796
2017-12-14T13:15:08.992Z,2064
2017-12-14T13:16:30.982Z,2512
2017-12-14T13:17:52.949Z,3016
2017-12-14T13:19:14.913Z,2708
2017-12-14T13:20:37.010Z,2400
2017-12-14T13:21:59.086Z,2664
2017-12-14T13:23:21.116Z,2876
2017-12-14T13:24:43.174Z,2932
2017-12-14T13:26:05.147Z,2708
2017-12-14T13:27:26.860Z,2944
2017-12-14T13:28:48.512Z,2892
2017-12-14T13:30:10.753Z,2964
2017-12-14T13:31:32.705Z,2700
2017-12-14T13:32:54.947Z,2820
2017-12-14T13:34:17.312Z,2612
2017-12-14T13:35:39.146Z,2780
2017-12-14T13:37:01.377Z,2584
2017-12-14T13:38:23.074Z,2464
2017-12-14T13:39:44.944Z,2808
2017-12-14T13:41:06.653Z,2260
2017-12-14T13:42:28.106Z,2152
2017-12-14T13:43:49.565Z,2028
2017-12-14T13:45:11.295Z,2512
2017-12-14T13:46:33.538Z,2256
2017-12-14T13:47:54.980Z,2164
2017-12-14T13:49:16.957Z,2000
2017-12-14T13:50:38.916Z,1968
2017-12-14T13:52:00.875Z,1684
2017-12-14T13:53:22.845Z,1664
2017-12-14T13:54:44.344Z,1756
2017-12-14T13:56:06.675Z,2092
2017-12-14T13:57:28.851Z,1952
2017-12-14T13:58:50.565Z,1524
2017-12-14T14:00:12.012Z,1500
2017-12-14T14:01:33.769Z,1568
2017-12-14T14:02:55.506Z,1356
2017-12-14T14:04:17.469Z,1476
2017-12-14T14:05:39.448Z,1728
2017-12-14T14:07:01.434Z,1596
2017-12-14T14:08:22.884Z,1612
2017-12-14T14:09:44.638Z,1588
2017-12-14T14:11:06.334Z,1564
2017-12-14T14:12:28.634Z,1584
2017-12-14T14:13:50.874Z,1684
2017-12-14T14:15:13.132Z,1440
2017-12-14T14:16:35.497Z,1400
2017-12-14T14:17:57.735Z,1316
2017-12-14T14:19:19.996Z,1600
2017-12-14T14:20:41.943Z,1564
2017-12-14T14:22:03.955Z,1416
2017-12-14T14:23:26.259Z,1276
2017-12-14T14:24:48.238Z,1060
2017-12-14T14:26:10.377Z,1024
2017-12-14T14:27:32.406Z,1000
2017-12-14T14:28:54.410Z,792
2017-12-14T14:30:16.672Z,616
2017-12-14T14:31:38.635Z,748
2017-12-14T14:33:00.925Z,900
2017-12-14T14:34:23.045Z,956
2017-12-14T14:35:44.224Z,1060
2017-12-14T14:37:06.264Z,1000
2017-12-14T14:38:27.985Z,920
2017-12-14T14:39:49.726Z,852
2017-12-14T14:41:11.710Z,900
2017-12-14T14:42:33.406Z,788
2017-12-14T14:43:55.670Z,736
2017-12-14T14:45:17.650Z,660
2017-12-14T14:46:39.378Z,488
2017-12-14T14:48:01.365Z,524
2017-12-14T14:49:23.114Z,452
2017-12-14T14:50:44.827Z,436
2017-12-14T14:52:06.339Z,384
2017-12-14T14:53:28.311Z,356
2017-12-14T14:54:50.316Z,328
2017-12-14T14:56:12.566Z,276
2017-12-14T14:57:34.854Z,264
2017-12-14T14:58:56.038Z,268
2017-12-14T15:00:18.025Z,232
2017-12-14T15:01:39.990Z,208
2017-12-14T15:03:01.947Z,204
2017-12-14T15:04:24.264Z,196
2017-12-14T15:05:46.239Z,188
2017-12-14T15:07:08.224Z,192
2017-12-14T15:08:30.237Z,172
2017-12-14T15:09:51.935Z,144
2017-12-14T15:11:14.169Z,116
2017-12-14T15:12:35.887Z,104
2017-12-14T15:13:57.868Z,92
2017-12-14T15:15:19.674Z,84
2017-12-14T15:16:41.110Z,68
2017-12-14T15:18:03.414Z,56
2017-12-14T15:19:25.523Z,44
2017-12-14T15:20:47.877Z,40
2017-12-14T15:22:09.688Z,36
2017-12-14T15:23:32.026Z,28
2017-12-14T15:24:54.386Z,28
2017-12-14T15:26:15.926Z,24
2017-12-14T15:27:37.902Z,20
2017-12-14T15:29:00.162Z,16
2017-12-14T15:30:22.444Z,8
2017-12-14T15:31:44.249Z,12
2017-12-14T15:33:06.343Z,8
2017-12-14T15:34:28.594Z,8
2017-12-14T15:35:50.614Z,4
2017-12-14T15:37:12.613Z,4
2017-12-14T15:38:34.314Z,4
2017-12-14T15:39:56.105Z,0
2017-12-14T15:41:17.867Z,4
2017-12-14T15:42:39.894Z,4
2017-12-14T15:44:01.885Z,0
2017-12-14T15:45:24.099Z,0
2017-12-14T15:46:46.074Z,0
2017-12-14T15:48:08.365Z,0
2017-12-14T15:49:30.343Z,0
2017-12-14T15:50:52.628Z,0
2017-12-14T15:52:14.615Z,0
2017-12-14T15:53:36.630Z,0
2017-12-14T15:54:58.458Z,0
2017-12-14T15:56:20.761Z,0
2017-12-14T15:57:42.867Z,0
2017-12-14T15:59:04.865Z,0
2017-12-14T16:00:26.584Z,0
2017-12-14T16:01:48.747Z,0
2017-12-14T16:03:10.824Z,0
2017-12-14T16:04:32.794Z,0
2017-12-14T16:05:54.585Z,0
2017-12-14T16:07:16.587Z,0
2017-12-14T16:08:38.568Z,0
2017-12-14T16:10:00.917Z,0
2017-12-14T16:11:22.618Z,0
2017-12-14T16:12:44.340Z,0
2017-12-14T16:14:06.604Z,0
2017-12-14T16:15:28.575Z,0
2017-12-14T16:16:50.580Z,0
2017-12-14T16:18:12.563Z,0
2017-12-14T16:19:34.495Z,0
2017-12-14T16:20:56.508Z,0
2017-12-14T16:22:18.807Z,0
2017-12-14T16:23:40.535Z,0
2017-12-14T16:25:02.255Z,0
2017-12-14T16:26:24.264Z,0
2017-12-14T16:27:45.744Z,0
2017-12-14T16:29:07.745Z,0
2017-12-14T16:30:29.996Z,0
2017-12-14T16:31:51.963Z,0
2017-12-14T16:33:14.324Z,0
2017-12-14T16:34:36.343Z,0
2017-12-14T16:35:58.196Z,0
2017-12-14T16:37:20.342Z,0
2017-12-14T16:38:42.322Z,0
2017-12-14T16:40:04.349Z,0
2017-12-14T16:41:26.142Z,0
2017-12-14T16:42:48.465Z,0
2017-12-14T16:44:10.862Z,0
2017-12-14T16:45:32.423Z,0
2017-12-14T16:46:54.682Z,0
2017-12-14T16:48:17.115Z,0
2017-12-14T16:49:39.182Z,0
2017-12-14T16:51:01.453Z,0
2017-12-14T16:52:23.160Z,0
2017-12-14T16:53:45.011Z,0
2017-12-14T16:55:07.333Z,0
2017-12-14T16:56:29.753Z,0
2017-12-14T16:57:51.834Z,0
2017-12-14T16:59:13.806Z,0
2017-12-14T17:00:35.775Z,0
2017-12-14T17:01:57.913Z,0
2017-12-14T17:03:19.944Z,0
2017-12-14T17:04:42.198Z,0
2017-12-14T17:06:04.570Z,0
2017-12-14T17:07:26.878Z,0
2017-12-14T17:08:48.692Z,0
2017-12-14T17:10:10.400Z,0
2017-12-14T17:11:32.666Z,0
2017-12-14T17:12:54.452Z,0
2017-12-14T17:14:15.908Z,0
2017-12-14T17:15:37.653Z,0
2017-12-14T17:16:59.843Z,0
2017-12-14T17:18:22.073Z,0
2017-12-14T17:19:44.193Z,0
2017-12-14T17:21:06.685Z,0
2017-12-14T17:22:28.691Z,0
2017-12-14T17:23:50.694Z,0
2017-12-14T17:25:12.956Z,0
2017-12-14T17:26:34.784Z,0
2017-12-14T17:27:57.182Z,0
2017-12-14T17:29:18.917Z,0
2017-12-14T17:30:41.553Z,0
2017-12-14T17:32:03.670Z,0
2017-12-14T17:33:26.015Z,0
2017-12-14T17:34:48.576Z,0
2017-12-14T17:36:10.282Z,0
2017-12-14T17:37:32.440Z,0
2017-12-14T17:38:54.441Z,0
2017-12-14T17:40:16.725Z,0
2017-12-14T17:41:38.740Z,0
2017-12-14T17:43:01.001Z,0
2017-12-14T17:44:23.017Z,0
2017-12-14T17:45:45.155Z,0
2017-12-14T17:47:07.442Z,0
2017-12-14T17:48:29.442Z,0
2017-12-14T17:49:51.156Z,0
2017-12-14T17:51:13.219Z,0
2017-12-14T17:52:35.213Z,0
2017-12-14T17:53:56.653Z,0
2017-12-14T17:55:18.524Z,0
2017-12-14T17:56:40.787Z,0
2017-12-14T17:58:02.551Z,0
2017-12-14T17:59:24.339Z,0
2017-12-14T18:00:46.407Z,0
2017-12-14T18:02:08.571Z,12
2017-12-14T18:03:30.384Z,0
2017-12-14T18:04:52.532Z,0
2017-12-14T18:06:14.806Z,0
2017-12-14T18:07:36.574Z,0
2017-12-14T18:08:58.823Z,0
2017-12-14T18:10:20.823Z,0
2017-12-14T18:11:42.812Z,0
2017-12-14T18:13:05.093Z,0
2017-12-14T18:14:27.382Z,0
2017-12-14T18:15:49.365Z,0
2017-12-14T18:17:11.747Z,0
2017-12-14T18:18:34.063Z,0
2017-12-14T18:19:56.351Z,0
2017-12-14T18:21:18.347Z,0
2017-12-14T18:22:40.599Z,0
2017-12-14T18:24:02.387Z,0
2017-12-14T18:25:24.416Z,0
2017-12-14T18:26:46.422Z,0
2017-12-14T18:28:08.184Z,0
2017-12-14T18:29:30.413Z,0
2017-12-14T18:30:52.478Z,0
2017-12-14T18:32:14.192Z,0
2017-12-14T18:33:36.564Z,0
2017-12-14T18:34:58.553Z,0
2017-12-14T18:36:20.885Z,0
2017-12-14T18:37:43.014Z,0
2017-12-14T18:39:04.747Z,0
2017-12-14T18:40:26.745Z,0
2017-12-14T18:41:48.731Z,0
2017-12-14T18:43:11.023Z,0
2017-12-14T18:44:33.073Z,0
2017-12-14T18:45:54.859Z,0
2017-12-14T18:47:16.859Z,0
2017-12-14T18:48:38.968Z,0
2017-12-14T18:50:00.700Z,0
2017-12-14T18:51:22.673Z,0
2017-12-14T18:52:44.432Z,0
2017-12-14T18:54:06.808Z,0
2017-12-14T18:55:28.838Z,0
2017-12-14T18:56:50.831Z,0
2017-12-14T18:58:12.903Z,0
2017-12-14T18:59:35.190Z,0
2017-12-14T19:00:57.386Z,0
2017-12-14T19:02:19.761Z,0
2017-12-14T19:03:41.508Z,0
2017-12-14T19:05:03.513Z,0
2017-12-14T19:06:25.564Z,0
2017-12-14T19:07:47.865Z,0
2017-12-14T19:09:09.903Z,0
2017-12-14T19:10:32.171Z,0
2017-12-14T19:11:54.208Z,12
2017-12-14T19:13:16.605Z,12
2017-12-14T19:14:38.924Z,8
2017-12-14T19:16:01.124Z,8
2017-12-14T19:17:23.293Z,8
2017-12-14T19:18:45.372Z,8
2017-12-14T19:20:07.708Z,8
2017-12-14T19:21:29.976Z,0
2017-12-14T19:22:52.384Z,0